Thunder radar more information blitzortung!


Rain radar more information rain snow radar


altri nostri siti meteo:

PomeziameteoStazione ufficiale di Pomezia

MeteopomeziaSito sulle condizioni meteo



Nessuna attenzione particolare richiesta.    Non ci sono allerte meteo

Report METAR

   
LIMP - Parma
Dati ricevuti: 05-08-2021 17:50
Sereno  
Sereno  
   Vento: SW 24.1 km/h
Vento: SW 24.1 km/h
Temperatura: 29°C
Indice di Calore: 29°C
P.to Rugiada: 15°C
Umidita: 43%
Barometro: 1005 hPa
Visibilita: oltre 10 km
dettagli cloud: Sereno
LIMP 051550Z 22013KT CAVOK 29/15 Q1005
LIPE - Bologna
Dati ricevuti: 05-08-2021 18:20
Poche nuvole  
Poche nuvole  
   Vento: Sud 16.7 km/h
Vento: Sud 16.7 km/h
Temperatura: 29°C
Indice di Calore: 28°C
P.to Rugiada: 14°C
Umidita: 40%
Barometro: 1005 hPa
Nuvole: Poche nuvole
Visibilita: oltre 10 km
dettagli cloud: Poche nuvole 6000 ft
LIPE 051620Z 17009KT 140V200 9999 FEW060 29/14 Q1005
LIPO - Brescia/Montichi
Dati ricevuti: 05-08-2021 18:20
Sereno  
Sereno  
   Vento: W 16.7 km/h
Vento: W 16.7 km/h
Temperatura: 29°C
Indice di Calore: 28°C
P.to Rugiada: 14°C
Umidita: 40%
Barometro: 1005 hPa
Nuvole: Sereno
Visibilita: oltre 10 km
dettagli cloud: Sereno
LIPO 051620Z AUTO 25009KT 9999 NCD 29/14 Q1005
LIPF - Ferrara
Dati ricevuti: 05-08-2021 17:55
Sereno  
Sereno  
   Vento: Variabile calma
Vento: Variabile calma
Temperatura: 31°C
P.to Rugiada: 10°C
Umidita: 27%
Barometro: 1005 hPa
Visibilita: oltre 10 km
dettagli cloud: Sereno
LIPF 051555Z /////KT CAVOK 31/10 Q1005
LIPL - Ghedi
Dati ricevuti: 05-08-2021 17:55
Poche nuvole  
Poche nuvole  
   Vento: West 13 km/h
Vento: West 13 km/h
Temperatura: 28°C
Indice di Calore: 28°C
P.to Rugiada: 16°C
Umidita: 48%
Barometro: 1005 hPa
Nuvole: Poche nuvole
Visibilita: oltre 10 km
dettagli cloud: Poche nuvole 3000 ft
LIPL 051555Z 27007KT 9999 FEW030 28/16 Q1005 RMK SCT SCT120 VIS MIN 9999 WIND THR31 28008KT WIND THR13 27008KT BLU
LIVC - Monte Cimone
Dati ricevuti: 05-08-2021 17:55
  
  
   Vento: SW 27.8 km/h
Vento: SW 27.8 km/h
Temperatura: 12°C
P.to Rugiada: 8°C
Umidita: 77%
Barometro: 1017 hPa
LIVC 051555Z AUTO 22015KT //// 12/08 Q1017
LIMS - Piacenza
Dati ricevuti: 05-08-2021 17:55
Poche nuvole  
Poche nuvole  
   Vento: Sud 5.6 km/h
Vento: Sud 5.6 km/h
Temperatura: 29°C
Indice di Calore: 31°C
P.to Rugiada: 19°C
Umidita: 55%
Barometro: 1005 hPa
Nuvole: Poche nuvole
Visibilita: oltre 10 km
dettagli cloud: Poche nuvole 3500 ft
LIMS 051555Z 19003KT 9999 FEW035 29/19 Q1005
LIMT - Passo della Cisa
Dati ricevuti: 23-09-2019 13:55
DATI Obsoleti
Nebbia  
Nebbia  
   Vento: calma
Vento: calma
Temperatura: 10°C
P.to Rugiada: 10°C
Umidita: 100%
Barometro: 1014 hPa
Visibilita: 0 km
dettagli cloud: Coperto
LIMT 231155Z 00000KT 0000 FG VV/// 10/10 Q1014 RMK MON INVIS VAL INVIS VIS MIN 0000
LIPU - Padova
Dati ricevuti: 05-08-2021 08:00
DATI Obsoleti
Sereno  
Sereno  
   Vento: Variabile 5.6 km/h
Vento: Variabile 5.6 km/h
Temperatura: 20°C
P.to Rugiada: 19°C
Umidita: 94%
Barometro: 1005 hPa
Visibilita: oltre 10 km
dettagli cloud: Sereno
LIPU 050600Z VRB03KT CAVOK 20/19 Q1005

Script sviluppato da  Saratoga-weather.org Adattato per il modello da  Weerstation Leuven

Strumentazione usata:

Stazione meteo
Davis VP2

Programma gestore dati meteo
WVIEW

Server per i dati meteo
Pc-WDS5

Davis VP2

WVIEW

Pc-WDS5